sensor_id;sensor_type;location;lat;lon;timestamp;P1;durP1;ratioP1;P2;durP2;ratioP2
42704;SDS011;28342;42.594;23.414;2023-05-10T00:02:24;5.93;;;3.40;;
42704;SDS011;28342;42.594;23.414;2023-05-10T00:04:50;5.95;;;4.03;;
42704;SDS011;28342;42.594;23.414;2023-05-10T00:07:16;6.68;;;4.25;;
42704;SDS011;28342;42.594;23.414;2023-05-10T00:09:42;5.43;;;4.32;;
42704;SDS011;28342;42.594;23.414;2023-05-10T00:12:08;6.68;;;4.38;;
42704;SDS011;28342;42.594;23.414;2023-05-10T00:14:34;5.35;;;4.28;;
42704;SDS011;28342;42.594;23.414;2023-05-10T00:16:59;6.13;;;4.63;;
42704;SDS011;28342;42.594;23.414;2023-05-10T00:19:25;7.60;;;5.18;;
42704;SDS011;28342;42.594;23.414;2023-05-10T00:21:50;5.95;;;4.57;;
42704;SDS011;28342;42.594;23.414;2023-05-10T00:24:16;10.05;;;5.45;;
42704;SDS011;28342;42.594;23.414;2023-05-10T00:26:41;7.53;;;4.97;;
42704;SDS011;28342;42.594;23.414;2023-05-10T00:29:07;7.47;;;5.07;;
42704;SDS011;28342;42.594;23.414;2023-05-10T00:31:32;7.40;;;5.15;;
42704;SDS011;28342;42.594;23.414;2023-05-10T00:33:58;8.27;;;5.60;;
42704;SDS011;28342;42.594;23.414;2023-05-10T00:36:23;9.60;;;5.63;;
42704;SDS011;28342;42.594;23.414;2023-05-10T00:38:49;8.55;;;5.95;;
42704;SDS011;28342;42.594;23.414;2023-05-10T00:41:14;10.15;;;5.88;;
42704;SDS011;28342;42.594;23.414;2023-05-10T00:43:40;8.75;;;5.85;;
42704;SDS011;28342;42.594;23.414;2023-05-10T00:46:06;11.60;;;6.07;;
42704;SDS011;28342;42.594;23.414;2023-05-10T00:48:32;9.02;;;5.75;;
42704;SDS011;28342;42.594;23.414;2023-05-10T00:50:58;11.80;;;6.28;;
42704;SDS011;28342;42.594;23.414;2023-05-10T00:53:24;10.25;;;6.45;;
42704;SDS011;28342;42.594;23.414;2023-05-10T00:55:49;16.80;;;9.13;;
42704;SDS011;28342;42.594;23.414;2023-05-10T00:58:16;23.67;;;11.00;;
42704;SDS011;28342;42.594;23.414;2023-05-10T01:00:42;12.38;;;7.88;;
42704;SDS011;28342;42.594;23.414;2023-05-10T01:03:09;9.75;;;6.38;;
42704;SDS011;28342;42.594;23.414;2023-05-10T01:05:36;8.10;;;6.10;;
42704;SDS011;28342;42.594;23.414;2023-05-10T01:08:02;7.65;;;5.00;;
42704;SDS011;28342;42.594;23.414;2023-05-10T01:10:27;6.07;;;4.90;;
42704;SDS011;28342;42.594;23.414;2023-05-10T01:12:53;6.43;;;4.85;;
42704;SDS011;28342;42.594;23.414;2023-05-10T01:15:18;6.75;;;4.68;;
42704;SDS011;28342;42.594;23.414;2023-05-10T01:17:45;7.60;;;4.50;;
42704;SDS011;28342;42.594;23.414;2023-05-10T01:20:12;6.15;;;4.95;;
42704;SDS011;28342;42.594;23.414;2023-05-10T01:25:19;5.57;;;4.43;;
42704;SDS011;28342;42.594;23.414;2023-05-10T01:31:27;4.32;;;3.78;;
42704;SDS011;28342;42.594;23.414;2023-05-10T01:34:19;5.63;;;4.20;;
42704;SDS011;28342;42.594;23.414;2023-05-10T01:36:53;4.45;;;3.35;;
42704;SDS011;28342;42.594;23.414;2023-05-10T01:44:40;4.57;;;3.78;;
42704;SDS011;28342;42.594;23.414;2023-05-10T01:47:12;6.13;;;4.25;;
42704;SDS011;28342;42.594;23.414;2023-05-10T01:49:50;6.55;;;4.90;;
42704;SDS011;28342;42.594;23.414;2023-05-10T01:52:22;9.38;;;5.07;;
42704;SDS011;28342;42.594;23.414;2023-05-10T01:55:01;6.43;;;5.07;;
42704;SDS011;28342;42.594;23.414;2023-05-10T01:57:33;5.75;;;4.25;;
42704;SDS011;28342;42.594;23.414;2023-05-10T02:00:01;8.82;;;5.05;;
42704;SDS011;28342;42.594;23.414;2023-05-10T02:02:29;8.07;;;5.30;;
42704;SDS011;28342;42.594;23.414;2023-05-10T02:04:58;7.07;;;5.15;;
42704;SDS011;28342;42.594;23.414;2023-05-10T02:07:24;6.55;;;4.47;;
42704;SDS011;28342;42.594;23.414;2023-05-10T02:09:53;5.20;;;4.30;;
42704;SDS011;28342;42.594;23.414;2023-05-10T02:12:20;7.97;;;4.47;;
42704;SDS011;28342;42.594;23.414;2023-05-10T02:14:47;9.25;;;4.38;;
42704;SDS011;28342;42.594;23.414;2023-05-10T02:17:15;8.45;;;5.22;;
42704;SDS011;28342;42.594;23.414;2023-05-10T02:19:42;4.72;;;3.40;;
42704;SDS011;28342;42.594;23.414;2023-05-10T02:22:10;7.53;;;4.50;;
42704;SDS011;28342;42.594;23.414;2023-05-10T02:24:37;7.00;;;4.35;;
42704;SDS011;28342;42.594;23.414;2023-05-10T02:27:04;6.25;;;4.38;;
42704;SDS011;28342;42.594;23.414;2023-05-10T02:29:31;9.10;;;4.10;;
42704;SDS011;28342;42.594;23.414;2023-05-10T02:31:58;6.38;;;4.15;;
42704;SDS011;28342;42.594;23.414;2023-05-10T02:34:25;5.53;;;3.95;;
42704;SDS011;28342;42.594;23.414;2023-05-10T02:36:52;5.20;;;4.07;;
42704;SDS011;28342;42.594;23.414;2023-05-10T02:39:21;5.75;;;3.92;;
42704;SDS011;28342;42.594;23.414;2023-05-10T02:41:48;8.18;;;4.32;;
42704;SDS011;28342;42.594;23.414;2023-05-10T02:44:15;6.53;;;3.75;;
42704;SDS011;28342;42.594;23.414;2023-05-10T02:46:45;7.78;;;4.88;;
42704;SDS011;28342;42.594;23.414;2023-05-10T02:49:11;8.70;;;5.65;;
42704;SDS011;28342;42.594;23.414;2023-05-10T02:51:40;10.25;;;5.20;;
42704;SDS011;28342;42.594;23.414;2023-05-10T02:54:18;9.05;;;5.30;;
42704;SDS011;28342;42.594;23.414;2023-05-10T02:56:53;8.07;;;5.63;;
42704;SDS011;28342;42.594;23.414;2023-05-10T02:59:22;7.93;;;4.85;;
42704;SDS011;28342;42.594;23.414;2023-05-10T03:01:48;9.80;;;5.03;;
42704;SDS011;28342;42.594;23.414;2023-05-10T03:04:14;7.32;;;4.75;;
42704;SDS011;28342;42.594;23.414;2023-05-10T03:06:40;5.75;;;4.10;;
42704;SDS011;28342;42.594;23.414;2023-05-10T03:09:06;7.53;;;5.00;;
42704;SDS011;28342;42.594;23.414;2023-05-10T03:14:24;8.02;;;4.50;;
42704;SDS011;28342;42.594;23.414;2023-05-10T03:20:03;8.00;;;5.45;;
42704;SDS011;28342;42.594;23.414;2023-05-10T03:22:34;9.23;;;5.05;;
42704;SDS011;28342;42.594;23.414;2023-05-10T03:25:06;8.23;;;4.50;;
42704;SDS011;28342;42.594;23.414;2023-05-10T03:27:33;4.93;;;3.90;;
42704;SDS011;28342;42.594;23.414;2023-05-10T03:30:01;6.28;;;3.97;;
42704;SDS011;28342;42.594;23.414;2023-05-10T03:32:28;8.65;;;4.60;;
42704;SDS011;28342;42.594;23.414;2023-05-10T03:34:55;6.90;;;4.22;;
42704;SDS011;28342;42.594;23.414;2023-05-10T03:37:20;7.32;;;4.43;;
42704;SDS011;28342;42.594;23.414;2023-05-10T03:39:46;9.63;;;5.47;;
42704;SDS011;28342;42.594;23.414;2023-05-10T03:42:11;7.80;;;5.13;;
42704;SDS011;28342;42.594;23.414;2023-05-10T03:44:37;7.88;;;5.38;;
42704;SDS011;28342;42.594;23.414;2023-05-10T03:47:05;6.72;;;4.40;;
42704;SDS011;28342;42.594;23.414;2023-05-10T03:49:31;7.18;;;4.53;;
42704;SDS011;28342;42.594;23.414;2023-05-10T03:51:57;8.55;;;4.65;;
42704;SDS011;28342;42.594;23.414;2023-05-10T03:54:22;7.63;;;4.85;;
42704;SDS011;28342;42.594;23.414;2023-05-10T03:56:48;8.38;;;4.78;;
42704;SDS011;28342;42.594;23.414;2023-05-10T03:59:13;7.18;;;4.32;;
42704;SDS011;28342;42.594;23.414;2023-05-10T04:01:38;5.65;;;4.25;;
42704;SDS011;28342;42.594;23.414;2023-05-10T04:04:04;6.68;;;4.68;;
42704;SDS011;28342;42.594;23.414;2023-05-10T04:06:29;11.18;;;4.93;;
42704;SDS011;28342;42.594;23.414;2023-05-10T04:08:55;8.75;;;4.93;;
42704;SDS011;28342;42.594;23.414;2023-05-10T04:11:21;4.60;;;3.95;;
42704;SDS011;28342;42.594;23.414;2023-05-10T04:13:46;6.20;;;4.85;;
42704;SDS011;28342;42.594;23.414;2023-05-10T04:16:12;5.25;;;4.03;;
42704;SDS011;28342;42.594;23.414;2023-05-10T04:18:37;6.75;;;4.28;;
42704;SDS011;28342;42.594;23.414;2023-05-10T04:21:04;6.03;;;4.13;;
42704;SDS011;28342;42.594;23.414;2023-05-10T04:23:35;6.35;;;3.78;;
42704;SDS011;28342;42.594;23.414;2023-05-10T04:26:01;4.50;;;3.67;;
42704;SDS011;28342;42.594;23.414;2023-05-10T04:28:27;7.10;;;3.95;;
42704;SDS011;28342;42.594;23.414;2023-05-10T04:30:52;7.28;;;4.07;;
42704;SDS011;28342;42.594;23.414;2023-05-10T04:33:17;8.68;;;4.30;;
42704;SDS011;28342;42.594;23.414;2023-05-10T04:35:43;5.30;;;4.22;;
42704;SDS011;28342;42.594;23.414;2023-05-10T04:38:10;6.65;;;4.60;;
42704;SDS011;28342;42.594;23.414;2023-05-10T04:40:35;8.00;;;4.70;;
42704;SDS011;28342;42.594;23.414;2023-05-10T04:43:00;7.63;;;4.65;;
42704;SDS011;28342;42.594;23.414;2023-05-10T04:45:26;8.13;;;4.28;;
42704;SDS011;28342;42.594;23.414;2023-05-10T04:47:51;6.95;;;4.22;;
42704;SDS011;28342;42.594;23.414;2023-05-10T04:50:17;8.23;;;4.85;;
42704;SDS011;28342;42.594;23.414;2023-05-10T04:52:42;6.18;;;4.00;;
42704;SDS011;28342;42.594;23.414;2023-05-10T04:55:08;6.78;;;4.85;;
42704;SDS011;28342;42.594;23.414;2023-05-10T04:57:34;6.72;;;4.43;;
42704;SDS011;28342;42.594;23.414;2023-05-10T05:00:00;8.95;;;4.88;;
42704;SDS011;28342;42.594;23.414;2023-05-10T05:02:25;9.27;;;5.43;;
42704;SDS011;28342;42.594;23.414;2023-05-10T05:04:51;7.75;;;4.78;;
42704;SDS011;28342;42.594;23.414;2023-05-10T05:07:16;7.63;;;5.10;;
42704;SDS011;28342;42.594;23.414;2023-05-10T05:09:42;7.50;;;5.05;;
42704;SDS011;28342;42.594;23.414;2023-05-10T05:12:07;7.35;;;4.80;;
42704;SDS011;28342;42.594;23.414;2023-05-10T05:14:32;9.07;;;4.82;;
42704;SDS011;28342;42.594;23.414;2023-05-10T05:16:58;9.43;;;5.15;;
42704;SDS011;28342;42.594;23.414;2023-05-10T05:19:23;7.10;;;5.25;;
42704;SDS011;28342;42.594;23.414;2023-05-10T05:21:49;9.73;;;5.40;;
42704;SDS011;28342;42.594;23.414;2023-05-10T05:24:14;7.32;;;5.15;;
42704;SDS011;28342;42.594;23.414;2023-05-10T05:26:40;8.93;;;5.85;;
42704;SDS011;28342;42.594;23.414;2023-05-10T05:29:05;9.45;;;5.90;;
42704;SDS011;28342;42.594;23.414;2023-05-10T05:31:33;8.15;;;5.18;;
42704;SDS011;28342;42.594;23.414;2023-05-10T05:33:59;9.43;;;5.78;;
42704;SDS011;28342;42.594;23.414;2023-05-10T05:36:24;7.05;;;5.22;;
42704;SDS011;28342;42.594;23.414;2023-05-10T05:38:50;8.77;;;5.57;;
42704;SDS011;28342;42.594;23.414;2023-05-10T05:41:15;10.10;;;5.60;;
42704;SDS011;28342;42.594;23.414;2023-05-10T05:43:40;10.40;;;6.10;;
42704;SDS011;28342;42.594;23.414;2023-05-10T05:46:06;10.15;;;6.10;;
42704;SDS011;28342;42.594;23.414;2023-05-10T05:48:31;12.40;;;6.40;;
42704;SDS011;28342;42.594;23.414;2023-05-10T05:50:57;11.48;;;7.57;;
42704;SDS011;28342;42.594;23.414;2023-05-10T05:53:23;12.23;;;6.65;;
42704;SDS011;28342;42.594;23.414;2023-05-10T05:55:55;14.95;;;8.32;;
42704;SDS011;28342;42.594;23.414;2023-05-10T06:00:48;8.32;;;5.68;;
42704;SDS011;28342;42.594;23.414;2023-05-10T06:03:13;15.15;;;7.90;;
42704;SDS011;28342;42.594;23.414;2023-05-10T06:05:39;11.90;;;6.90;;
42704;SDS011;28342;42.594;23.414;2023-05-10T06:08:04;11.32;;;6.18;;
42704;SDS011;28342;42.594;23.414;2023-05-10T06:10:30;11.50;;;6.30;;
42704;SDS011;28342;42.594;23.414;2023-05-10T06:12:55;12.32;;;7.20;;
42704;SDS011;28342;42.594;23.414;2023-05-10T06:15:21;15.70;;;7.97;;
42704;SDS011;28342;42.594;23.414;2023-05-10T06:17:46;12.35;;;6.72;;
42704;SDS011;28342;42.594;23.414;2023-05-10T06:20:14;12.38;;;7.45;;
42704;SDS011;28342;42.594;23.414;2023-05-10T06:22:40;11.23;;;7.18;;
42704;SDS011;28342;42.594;23.414;2023-05-10T06:25:06;15.02;;;7.03;;
42704;SDS011;28342;42.594;23.414;2023-05-10T06:27:32;10.68;;;7.07;;
42704;SDS011;28342;42.594;23.414;2023-05-10T06:29:57;12.25;;;7.80;;
42704;SDS011;28342;42.594;23.414;2023-05-10T06:32:23;13.93;;;7.30;;
42704;SDS011;28342;42.594;23.414;2023-05-10T06:34:48;11.35;;;7.50;;
42704;SDS011;28342;42.594;23.414;2023-05-10T06:37:14;10.57;;;7.03;;
42704;SDS011;28342;42.594;23.414;2023-05-10T06:39:39;10.13;;;6.50;;
42704;SDS011;28342;42.594;23.414;2023-05-10T06:42:04;14.07;;;7.32;;
42704;SDS011;28342;42.594;23.414;2023-05-10T06:44:30;11.27;;;6.78;;
42704;SDS011;28342;42.594;23.414;2023-05-10T06:46:55;12.65;;;7.70;;
42704;SDS011;28342;42.594;23.414;2023-05-10T06:49:21;11.13;;;6.55;;
42704;SDS011;28342;42.594;23.414;2023-05-10T06:51:47;14.95;;;8.73;;
42704;SDS011;28342;42.594;23.414;2023-05-10T06:54:13;16.05;;;8.10;;
42704;SDS011;28342;42.594;23.414;2023-05-10T06:56:39;14.20;;;7.43;;
42704;SDS011;28342;42.594;23.414;2023-05-10T06:59:04;12.82;;;6.85;;
42704;SDS011;28342;42.594;23.414;2023-05-10T07:01:30;18.23;;;7.95;;
42704;SDS011;28342;42.594;23.414;2023-05-10T07:03:55;23.08;;;9.98;;
42704;SDS011;28342;42.594;23.414;2023-05-10T07:06:21;15.30;;;8.45;;
42704;SDS011;28342;42.594;23.414;2023-05-10T07:08:46;20.30;;;10.27;;
42704;SDS011;28342;42.594;23.414;2023-05-10T07:11:11;26.63;;;10.70;;
42704;SDS011;28342;42.594;23.414;2023-05-10T07:13:37;17.08;;;9.68;;
42704;SDS011;28342;42.594;23.414;2023-05-10T07:16:04;18.30;;;9.27;;
42704;SDS011;28342;42.594;23.414;2023-05-10T07:18:31;17.55;;;9.38;;
42704;SDS011;28342;42.594;23.414;2023-05-10T07:20:56;15.35;;;8.57;;
42704;SDS011;28342;42.594;23.414;2023-05-10T07:23:22;12.25;;;7.30;;
42704;SDS011;28342;42.594;23.414;2023-05-10T07:25:48;12.93;;;7.35;;
42704;SDS011;28342;42.594;23.414;2023-05-10T07:28:17;21.00;;;8.57;;
42704;SDS011;28342;42.594;23.414;2023-05-10T07:30:43;13.07;;;8.02;;
42704;SDS011;28342;42.594;23.414;2023-05-10T07:33:09;11.63;;;7.90;;
42704;SDS011;28342;42.594;23.414;2023-05-10T07:35:36;12.43;;;8.13;;
42704;SDS011;28342;42.594;23.414;2023-05-10T07:38:01;17.30;;;8.68;;
42704;SDS011;28342;42.594;23.414;2023-05-10T07:40:27;15.60;;;8.57;;
42704;SDS011;28342;42.594;23.414;2023-05-10T07:42:53;14.15;;;9.05;;
42704;SDS011;28342;42.594;23.414;2023-05-10T07:45:18;15.65;;;8.63;;
42704;SDS011;28342;42.594;23.414;2023-05-10T07:47:44;10.95;;;7.63;;
42704;SDS011;28342;42.594;23.414;2023-05-10T07:50:09;17.17;;;8.65;;
42704;SDS011;28342;42.594;23.414;2023-05-10T07:52:35;16.48;;;8.15;;
42704;SDS011;28342;42.594;23.414;2023-05-10T07:55:00;15.73;;;8.95;;
42704;SDS011;28342;42.594;23.414;2023-05-10T07:57:27;16.75;;;9.07;;
42704;SDS011;28342;42.594;23.414;2023-05-10T07:59:52;12.32;;;8.18;;
42704;SDS011;28342;42.594;23.414;2023-05-10T08:02:18;12.80;;;7.90;;
42704;SDS011;28342;42.594;23.414;2023-05-10T08:04:43;14.18;;;7.72;;
42704;SDS011;28342;42.594;23.414;2023-05-10T08:07:09;10.95;;;6.88;;
42704;SDS011;28342;42.594;23.414;2023-05-10T08:09:35;12.15;;;7.00;;
42704;SDS011;28342;42.594;23.414;2023-05-10T08:12:01;12.93;;;7.47;;
42704;SDS011;28342;42.594;23.414;2023-05-10T08:14:27;14.15;;;6.63;;
42704;SDS011;28342;42.594;23.414;2023-05-10T08:16:55;9.70;;;7.13;;
42704;SDS011;28342;42.594;23.414;2023-05-10T08:19:22;12.10;;;6.65;;
42704;SDS011;28342;42.594;23.414;2023-05-10T08:21:48;11.60;;;7.55;;
42704;SDS011;28342;42.594;23.414;2023-05-10T08:24:13;13.95;;;8.15;;
42704;SDS011;28342;42.594;23.414;2023-05-10T08:26:39;13.52;;;8.77;;
42704;SDS011;28342;42.594;23.414;2023-05-10T08:29:04;12.52;;;8.30;;
42704;SDS011;28342;42.594;23.414;2023-05-10T08:31:30;14.02;;;9.35;;
42704;SDS011;28342;42.594;23.414;2023-05-10T08:33:55;13.93;;;7.90;;
42704;SDS011;28342;42.594;23.414;2023-05-10T08:36:21;10.50;;;7.22;;
42704;SDS011;28342;42.594;23.414;2023-05-10T08:38:51;10.57;;;7.35;;
42704;SDS011;28342;42.594;23.414;2023-05-10T08:41:19;12.38;;;7.97;;
42704;SDS011;28342;42.594;23.414;2023-05-10T08:43:46;10.10;;;7.45;;
42704;SDS011;28342;42.594;23.414;2023-05-10T08:46:13;15.32;;;9.90;;
42704;SDS011;28342;42.594;23.414;2023-05-10T08:48:45;13.38;;;8.77;;
42704;SDS011;28342;42.594;23.414;2023-05-10T08:51:14;12.10;;;7.85;;
42704;SDS011;28342;42.594;23.414;2023-05-10T08:53:43;11.60;;;7.15;;
42704;SDS011;28342;42.594;23.414;2023-05-10T08:56:09;19.33;;;10.70;;
42704;SDS011;28342;42.594;23.414;2023-05-10T08:58:34;33.78;;;13.68;;
42704;SDS011;28342;42.594;23.414;2023-05-10T09:01:01;17.05;;;8.40;;
42704;SDS011;28342;42.594;23.414;2023-05-10T09:03:28;16.90;;;9.20;;
42704;SDS011;28342;42.594;23.414;2023-05-10T09:05:54;13.27;;;8.82;;
42704;SDS011;28342;42.594;23.414;2023-05-10T09:08:20;14.18;;;9.52;;
42704;SDS011;28342;42.594;23.414;2023-05-10T09:10:50;12.10;;;9.02;;
42704;SDS011;28342;42.594;23.414;2023-05-10T09:13:15;14.27;;;9.18;;
42704;SDS011;28342;42.594;23.414;2023-05-10T09:15:43;12.35;;;8.25;;
42704;SDS011;28342;42.594;23.414;2023-05-10T09:18:09;13.85;;;7.78;;
42704;SDS011;28342;42.594;23.414;2023-05-10T09:20:35;10.75;;;6.75;;
42704;SDS011;28342;42.594;23.414;2023-05-10T09:23:00;11.30;;;7.65;;
42704;SDS011;28342;42.594;23.414;2023-05-10T09:25:26;10.07;;;6.85;;
42704;SDS011;28342;42.594;23.414;2023-05-10T09:27:52;11.20;;;7.25;;
42704;SDS011;28342;42.594;23.414;2023-05-10T09:30:29;10.23;;;7.30;;
42704;SDS011;28342;42.594;23.414;2023-05-10T09:32:55;12.70;;;8.23;;
42704;SDS011;28342;42.594;23.414;2023-05-10T09:35:26;11.05;;;6.90;;
42704;SDS011;28342;42.594;23.414;2023-05-10T09:37:54;10.75;;;7.63;;
42704;SDS011;28342;42.594;23.414;2023-05-10T09:40:25;11.95;;;7.28;;
42704;SDS011;28342;42.594;23.414;2023-05-10T09:42:53;11.77;;;7.63;;
42704;SDS011;28342;42.594;23.414;2023-05-10T09:45:32;12.85;;;7.65;;
42704;SDS011;28342;42.594;23.414;2023-05-10T09:48:00;10.00;;;7.55;;
42704;SDS011;28342;42.594;23.414;2023-05-10T09:50:27;11.80;;;6.95;;
42704;SDS011;28342;42.594;23.414;2023-05-10T09:53:00;10.63;;;7.55;;
42704;SDS011;28342;42.594;23.414;2023-05-10T09:56:01;13.40;;;7.78;;
42704;SDS011;28342;42.594;23.414;2023-05-10T09:58:20;10.23;;;7.22;;
42704;SDS011;28342;42.594;23.414;2023-05-10T10:00:45;11.65;;;7.63;;
42704;SDS011;28342;42.594;23.414;2023-05-10T10:03:18;10.65;;;7.75;;
42704;SDS011;28342;42.594;23.414;2023-05-10T10:05:44;11.63;;;7.13;;
42704;SDS011;28342;42.594;23.414;2023-05-10T10:08:11;9.50;;;6.30;;
42704;SDS011;28342;42.594;23.414;2023-05-10T10:10:37;7.18;;;5.55;;
42704;SDS011;28342;42.594;23.414;2023-05-10T10:13:06;9.15;;;6.35;;
42704;SDS011;28342;42.594;23.414;2023-05-10T10:15:32;10.60;;;7.35;;
42704;SDS011;28342;42.594;23.414;2023-05-10T10:17:59;10.95;;;6.90;;
42704;SDS011;28342;42.594;23.414;2023-05-10T10:20:25;10.02;;;6.32;;
42704;SDS011;28342;42.594;23.414;2023-05-10T10:22:51;10.13;;;6.60;;
42704;SDS011;28342;42.594;23.414;2023-05-10T10:25:17;9.52;;;6.55;;
42704;SDS011;28342;42.594;23.414;2023-05-10T10:30:28;13.02;;;6.10;;
42704;SDS011;28342;42.594;23.414;2023-05-10T10:35:59;10.63;;;7.05;;
42704;SDS011;28342;42.594;23.414;2023-05-10T10:38:35;12.23;;;5.93;;
42704;SDS011;28342;42.594;23.414;2023-05-10T10:41:10;9.82;;;6.10;;
42704;SDS011;28342;42.594;23.414;2023-05-10T10:44:38;9.68;;;5.80;;
42704;SDS011;28342;42.594;23.414;2023-05-10T10:49:43;12.88;;;5.53;;
42704;SDS011;28342;42.594;23.414;2023-05-10T10:57:54;8.00;;;5.70;;
42704;SDS011;28342;42.594;23.414;2023-05-10T11:00:30;10.65;;;5.80;;
42704;SDS011;28342;42.594;23.414;2023-05-10T11:03:03;11.15;;;5.95;;
42704;SDS011;28342;42.594;23.414;2023-05-10T11:08:00;8.55;;;5.68;;
42704;SDS011;28342;42.594;23.414;2023-05-10T11:10:33;9.52;;;5.47;;
42704;SDS011;28342;42.594;23.414;2023-05-10T11:13:03;7.15;;;5.07;;
42704;SDS011;28342;42.594;23.414;2023-05-10T11:18:15;10.40;;;6.40;;
42704;SDS011;28342;42.594;23.414;2023-05-10T11:20:41;8.13;;;4.97;;
42704;SDS011;28342;42.594;23.414;2023-05-10T11:23:15;8.45;;;5.55;;
42704;SDS011;28342;42.594;23.414;2023-05-10T11:25:43;10.30;;;6.53;;
42704;SDS011;28342;42.594;23.414;2023-05-10T11:28:10;6.88;;;5.45;;
42704;SDS011;28342;42.594;23.414;2023-05-10T11:30:36;9.90;;;5.43;;
42704;SDS011;28342;42.594;23.414;2023-05-10T11:33:04;6.95;;;4.78;;
42704;SDS011;28342;42.594;23.414;2023-05-10T11:35:30;10.35;;;6.03;;
42704;SDS011;28342;42.594;23.414;2023-05-10T11:37:55;8.77;;;5.47;;
42704;SDS011;28342;42.594;23.414;2023-05-10T11:40:21;7.65;;;5.78;;
42704;SDS011;28342;42.594;23.414;2023-05-10T11:42:49;9.52;;;6.25;;
42704;SDS011;28342;42.594;23.414;2023-05-10T11:45:15;11.43;;;6.03;;
42704;SDS011;28342;42.594;23.414;2023-05-10T11:47:41;10.38;;;6.70;;
42704;SDS011;28342;42.594;23.414;2023-05-10T11:50:10;15.57;;;8.63;;
42704;SDS011;28342;42.594;23.414;2023-05-10T11:52:36;11.75;;;7.55;;
42704;SDS011;28342;42.594;23.414;2023-05-10T11:55:04;13.93;;;8.27;;
42704;SDS011;28342;42.594;23.414;2023-05-10T11:57:30;12.18;;;8.45;;
42704;SDS011;28342;42.594;23.414;2023-05-10T11:59:56;10.48;;;6.97;;
42704;SDS011;28342;42.594;23.414;2023-05-10T12:02:23;12.77;;;7.28;;
42704;SDS011;28342;42.594;23.414;2023-05-10T12:04:48;12.05;;;6.85;;
42704;SDS011;28342;42.594;23.414;2023-05-10T12:07:15;17.17;;;7.38;;
42704;SDS011;28342;42.594;23.414;2023-05-10T12:09:55;12.95;;;6.38;;
42704;SDS011;28342;42.594;23.414;2023-05-10T12:12:47;11.30;;;7.00;;
42704;SDS011;28342;42.594;23.414;2023-05-10T12:17:48;11.73;;;8.00;;
42704;SDS011;28342;42.594;23.414;2023-05-10T12:22:51;22.52;;;9.65;;
42704;SDS011;28342;42.594;23.414;2023-05-10T12:25:18;12.68;;;6.78;;
42704;SDS011;28342;42.594;23.414;2023-05-10T12:27:51;10.82;;;7.07;;
42704;SDS011;28342;42.594;23.414;2023-05-10T12:30:22;10.80;;;6.95;;
42704;SDS011;28342;42.594;23.414;2023-05-10T12:32:49;8.93;;;5.72;;
42704;SDS011;28342;42.594;23.414;2023-05-10T12:35:14;8.43;;;5.78;;
42704;SDS011;28342;42.594;23.414;2023-05-10T12:37:42;13.52;;;6.38;;
42704;SDS011;28342;42.594;23.414;2023-05-10T12:40:08;8.73;;;6.55;;
42704;SDS011;28342;42.594;23.414;2023-05-10T12:42:36;9.40;;;6.80;;
42704;SDS011;28342;42.594;23.414;2023-05-10T12:45:02;9.32;;;6.28;;
42704;SDS011;28342;42.594;23.414;2023-05-10T12:47:29;10.30;;;6.65;;
42704;SDS011;28342;42.594;23.414;2023-05-10T12:49:55;11.00;;;5.88;;
42704;SDS011;28342;42.594;23.414;2023-05-10T12:52:20;11.90;;;7.35;;
42704;SDS011;28342;42.594;23.414;2023-05-10T12:54:46;7.68;;;5.05;;
42704;SDS011;28342;42.594;23.414;2023-05-10T12:57:12;13.02;;;4.68;;
42704;SDS011;28342;42.594;23.414;2023-05-10T12:59:38;8.10;;;5.25;;
42704;SDS011;28342;42.594;23.414;2023-05-10T13:02:03;7.13;;;4.95;;
42704;SDS011;28342;42.594;23.414;2023-05-10T13:04:29;7.15;;;5.28;;
42704;SDS011;28342;42.594;23.414;2023-05-10T13:06:54;7.72;;;4.88;;
42704;SDS011;28342;42.594;23.414;2023-05-10T13:09:23;10.30;;;5.95;;
42704;SDS011;28342;42.594;23.414;2023-05-10T13:11:54;27.50;;;9.90;;
42704;SDS011;28342;42.594;23.414;2023-05-10T13:14:20;10.48;;;6.45;;
42704;SDS011;28342;42.594;23.414;2023-05-10T13:16:46;17.33;;;7.78;;
42704;SDS011;28342;42.594;23.414;2023-05-10T13:19:12;20.45;;;8.88;;
42704;SDS011;28342;42.594;23.414;2023-05-10T13:21:42;16.67;;;8.32;;
42704;SDS011;28342;42.594;23.414;2023-05-10T13:24:09;15.25;;;7.57;;
42704;SDS011;28342;42.594;23.414;2023-05-10T13:26:35;11.57;;;6.97;;
42704;SDS011;28342;42.594;23.414;2023-05-10T13:29:01;7.38;;;4.50;;
42704;SDS011;28342;42.594;23.414;2023-05-10T13:31:28;7.88;;;4.95;;
42704;SDS011;28342;42.594;23.414;2023-05-10T13:33:53;9.25;;;5.18;;
42704;SDS011;28342;42.594;23.414;2023-05-10T13:36:19;10.05;;;5.47;;
42704;SDS011;28342;42.594;23.414;2023-05-10T13:38:45;10.50;;;6.40;;
42704;SDS011;28342;42.594;23.414;2023-05-10T13:41:10;11.65;;;7.10;;
42704;SDS011;28342;42.594;23.414;2023-05-10T13:43:36;9.27;;;6.03;;
42704;SDS011;28342;42.594;23.414;2023-05-10T13:46:01;9.95;;;5.90;;
42704;SDS011;28342;42.594;23.414;2023-05-10T13:48:27;9.18;;;5.72;;
42704;SDS011;28342;42.594;23.414;2023-05-10T13:50:53;8.05;;;5.00;;
42704;SDS011;28342;42.594;23.414;2023-05-10T13:53:18;11.60;;;6.40;;
42704;SDS011;28342;42.594;23.414;2023-05-10T13:55:44;9.05;;;6.32;;
42704;SDS011;28342;42.594;23.414;2023-05-10T13:58:09;17.13;;;8.07;;
42704;SDS011;28342;42.594;23.414;2023-05-10T14:00:35;9.50;;;6.22;;
42704;SDS011;28342;42.594;23.414;2023-05-10T14:03:01;13.07;;;7.40;;
42704;SDS011;28342;42.594;23.414;2023-05-10T14:05:26;10.32;;;5.75;;
42704;SDS011;28342;42.594;23.414;2023-05-10T14:07:52;8.80;;;5.97;;
42704;SDS011;28342;42.594;23.414;2023-05-10T14:10:17;10.50;;;6.68;;
42704;SDS011;28342;42.594;23.414;2023-05-10T14:12:43;9.80;;;6.18;;
42704;SDS011;28342;42.594;23.414;2023-05-10T14:15:08;11.18;;;7.30;;
42704;SDS011;28342;42.594;23.414;2023-05-10T14:17:36;21.20;;;9.48;;
42704;SDS011;28342;42.594;23.414;2023-05-10T14:20:01;8.90;;;6.07;;
42704;SDS011;28342;42.594;23.414;2023-05-10T14:22:27;12.88;;;6.78;;
42704;SDS011;28342;42.594;23.414;2023-05-10T14:24:52;17.65;;;7.35;;
42704;SDS011;28342;42.594;23.414;2023-05-10T14:27:18;13.85;;;7.55;;
42704;SDS011;28342;42.594;23.414;2023-05-10T14:29:44;10.60;;;6.13;;
42704;SDS011;28342;42.594;23.414;2023-05-10T14:32:09;13.10;;;6.05;;
42704;SDS011;28342;42.594;23.414;2023-05-10T14:34:35;8.95;;;5.75;;
42704;SDS011;28342;42.594;23.414;2023-05-10T14:37:00;8.73;;;6.38;;
42704;SDS011;28342;42.594;23.414;2023-05-10T14:39:26;10.73;;;7.28;;
42704;SDS011;28342;42.594;23.414;2023-05-10T14:41:54;10.35;;;6.38;;
42704;SDS011;28342;42.594;23.414;2023-05-10T14:44:20;11.13;;;5.82;;
42704;SDS011;28342;42.594;23.414;2023-05-10T14:46:45;9.90;;;6.20;;
42704;SDS011;28342;42.594;23.414;2023-05-10T14:49:11;9.68;;;6.13;;
42704;SDS011;28342;42.594;23.414;2023-05-10T14:51:36;10.75;;;6.63;;
42704;SDS011;28342;42.594;23.414;2023-05-10T14:54:02;11.32;;;5.82;;
42704;SDS011;28342;42.594;23.414;2023-05-10T14:56:27;9.13;;;5.18;;
42704;SDS011;28342;42.594;23.414;2023-05-10T14:58:53;13.90;;;8.13;;
42704;SDS011;28342;42.594;23.414;2023-05-10T15:01:18;13.13;;;8.10;;
42704;SDS011;28342;42.594;23.414;2023-05-10T15:03:44;10.57;;;6.00;;
42704;SDS011;28342;42.594;23.414;2023-05-10T15:06:09;10.57;;;6.25;;
42704;SDS011;28342;42.594;23.414;2023-05-10T15:08:35;8.93;;;5.60;;
42704;SDS011;28342;42.594;23.414;2023-05-10T15:11:01;10.75;;;6.78;;
42704;SDS011;28342;42.594;23.414;2023-05-10T15:13:26;13.45;;;6.28;;